Time;durP1;ratioP1;P1;durP2;ratioP2;P2;SDS_P1;SDS_P2;PMS_P1;PMS_P2;Temp;Humidity;BMP_temperature;BMP_pressure;BME280_temperature;BME280_humidity;BME280_pressure;Samples;Min_cycle;Max_cycle;Signal;HPM_P1;HPM_P2
2023/11/30 00:01:29;;;;;;;7.10;5.20;;;;;;;-147.86;100.00;48376.05;105561;1254;72671;-41
2023/11/30 00:03:56;;;;;;;7.50;4.80;;;;;;;-147.86;100.00;48361.16;105713;1257;59917;-43
2023/11/30 00:06:29;;;;;;;6.40;4.90;;;;;;;-147.86;100.00;48384.68;105897;1257;59558;-44
2023/11/30 00:08:59;;;;;;;;;;;;;;;-147.86;100.00;48363.51;105829;1257;72727;-45
2023/11/30 00:11:29;;;;;;;7.00;5.00;;;;;;;-147.86;100.00;48386.25;105862;1258;65499;-45
2023/11/30 00:13:56;;;;;;;5.60;4.70;;;;;;;-147.86;100.00;48372.13;105887;1255;72894;-48
2023/11/30 00:16:23;;;;;;;8.10;5.00;;;;;;;-147.86;100.00;48384.68;105891;1257;60379;-45
2023/11/30 00:18:50;;;;;;;8.80;5.50;;;;;;;-147.86;100.00;48378.80;105821;1253;60457;-42
2023/11/30 00:21:17;;;;;;;8.00;5.10;;;;;;;-147.86;100.00;48390.96;105830;1257;74275;-43
2023/11/30 00:23:44;;;;;;;9.50;5.30;;;;;;;-147.86;100.00;48369.00;105859;1256;65180;-44
2023/11/30 00:26:11;;;;;;;9.10;5.50;;;;;;;-147.86;100.00;48379.20;105862;1254;72464;-43
2023/11/30 00:28:39;;;;;;;6.90;5.00;;;;;;;-147.86;100.00;48369.79;105863;1257;60328;-43
2023/11/30 00:31:21;;;;;;;9.30;5.30;;;;;;;-147.86;100.00;48364.29;105797;1253;60802;-45
2023/11/30 00:33:48;;;;;;;8.70;5.30;;;;;;;-147.86;100.00;48379.19;105815;1258;73875;-46
2023/11/30 00:36:15;;;;;;;9.00;5.20;;;;;;;-147.86;100.00;48368.61;105692;1260;65475;-44
2023/11/30 00:38:42;;;;;;;10.10;5.60;;;;;;;-147.86;100.00;48378.80;105831;1254;72402;-45
2023/11/30 00:41:15;;;;;;;13.30;5.20;;;;;;;-147.86;100.00;48385.86;105849;1256;60339;-42
2023/11/30 00:43:42;;;;;;;10.00;5.90;;;;;;;-147.86;100.00;48375.27;105752;1254;60575;-43
2023/11/30 00:46:14;;;;;;;9.90;5.60;;;;;;;-147.86;100.00;48387.43;105819;1257;73663;-43
2023/11/30 00:48:41;;;;;;;9.60;5.70;;;;;;;-147.86;100.00;48380.37;105745;1257;65499;-41
2023/11/30 00:51:11;;;;;;;9.10;5.80;;;;;;;-147.86;100.00;48395.27;105671;1254;72680;-42
2023/11/30 00:53:42;;;;;;;7.10;5.20;;;;;;;-147.86;100.00;48395.66;105831;1254;60536;-41
2023/11/30 00:56:10;;;;;;;7.10;5.10;;;;;;;-147.86;100.00;48390.17;105784;1254;60456;-45
2023/11/30 00:58:38;;;;;;;7.30;4.90;;;;;;;-147.86;100.00;48393.70;105871;1257;73833;-45
2023/11/30 01:01:05;;;;;;;9.60;5.40;;;;;;;-147.86;100.00;48394.48;105882;1257;65724;-44
2023/11/30 01:03:32;;;;;;;6.40;4.40;;;;;;;-147.86;100.00;48386.64;105858;1254;72620;-45
2023/11/30 01:06:03;;;;;;;5.10;3.50;;;;;;;-147.86;100.00;48378.41;105826;1257;60361;-46
2023/11/30 01:08:30;;;;;;;7.10;4.00;;;;;;;-147.86;100.00;48391.74;105861;1253;60399;-44
2023/11/30 01:10:57;;;;;;;4.80;3.60;;;;;;;-147.86;100.00;48374.09;105768;1257;73733;-44
2023/11/30 01:13:24;;;;;;;8.20;4.40;;;;;;;-147.86;100.00;48371.35;105881;1257;65415;-46
2023/11/30 01:15:50;;;;;;;6.30;4.80;;;;;;;-147.86;100.00;48355.66;105841;1254;72686;-47
2023/11/30 01:18:20;;;;;;;8.20;4.10;;;;;;;-147.86;100.00;48362.73;105812;1257;60564;-44
2023/11/30 01:20:49;;;;;;;5.20;3.90;;;;;;;-147.86;100.00;48354.88;105809;1254;60459;-42
2023/11/30 01:23:20;;;;;;;9.00;4.50;;;;;;;-147.86;100.00;48335.28;105828;1254;72627;-42
2023/11/30 01:25:47;;;;;;;9.50;3.80;;;;;;;-147.86;100.00;48330.97;105843;1254;66630;-42
2023/11/30 01:28:19;;;;;;;8.50;4.60;;;;;;;-147.86;100.00;48370.18;105803;1254;72704;-43
2023/11/30 01:30:48;;;;;;;6.60;4.00;;;;;;;-147.86;100.00;48345.87;105848;1259;60427;-42
2023/11/30 01:33:15;;;;;;;5.90;4.30;;;;;;;-147.86;100.00;48329.79;105911;1254;60526;-43
2023/11/30 01:35:48;;;;;;;6.50;4.30;;;;;;;-147.86;100.00;48348.22;105806;1257;73907;-42
2023/11/30 01:38:15;;;;;;;5.80;3.50;;;;;;;-147.86;100.00;48336.06;105897;1257;65370;-42
2023/11/30 01:40:45;;;;;;;7.30;4.40;;;;;;;-147.86;100.00;48347.43;105834;1254;72617;-42
2023/11/30 01:43:23;;;;;;;5.60;4.20;;;;;;;-147.86;100.00;48343.51;105847;1257;60341;-42
2023/11/30 01:45:50;;;;;;;5.70;4.40;;;;;;;-147.86;100.00;48342.34;105805;1253;60527;-42
2023/11/30 01:48:30;;;;;;;4.00;3.50;;;;;;;-147.86;100.00;48352.92;105981;1254;73790;-42
2023/11/30 01:50:57;;;;;;;9.80;4.90;;;;;;;-147.86;100.00;48349.79;105977;1251;63779;-41
2023/11/30 01:53:24;;;;;;;8.30;4.80;;;;;;;-147.86;100.00;48356.45;105944;1250;72672;-42
2023/11/30 01:55:51;;;;;;;10.50;4.90;;;;;;;-147.86;100.00;48345.47;105957;1254;60367;-41
2023/11/30 01:58:19;;;;;;;8.50;4.70;;;;;;;-147.86;100.00;48349.00;105925;1254;60402;-42
2023/11/30 02:00:46;;;;;;;8.30;4.50;;;;;;;-147.86;100.00;48354.10;105884;1252;73790;-41
2023/11/30 02:03:13;;;;;;;8.90;4.50;;;;;;;-147.86;100.00;48352.93;105860;1257;65964;-42
2023/11/30 02:05:40;;;;;;;6.70;4.10;;;;;;;-147.86;100.00;48354.49;105931;1254;71432;-42
2023/11/30 02:08:07;;;;;;;9.20;4.80;;;;;;;-147.86;100.00;48354.10;105887;1254;60380;-43
2023/11/30 02:10:36;;;;;;;8.50;4.40;;;;;;;-147.86;100.00;48341.95;105995;1251;60466;-41
2023/11/30 02:13:03;;;;;;;7.60;4.50;;;;;;;-147.86;100.00;48356.84;105928;1254;72946;-42
2023/11/30 02:15:30;;;;;;;5.20;3.80;;;;;;;-147.86;100.00;48362.73;105988;1254;65588;-41
2023/11/30 02:17:57;;;;;;;8.70;4.70;;;;;;;-147.86;100.00;48364.29;105945;1251;71615;-41
2023/11/30 02:20:25;;;;;;;6.50;4.30;;;;;;;-147.86;100.00;48373.71;105983;1255;60499;-42
2023/11/30 02:22:52;;;;;;;7.00;4.80;;;;;;;-147.86;100.00;48357.63;105928;1251;60463;-42
2023/11/30 02:25:19;;;;;;;10.30;5.10;;;;;;;-147.86;100.00;48344.30;105970;1251;73835;-42
2023/11/30 02:27:47;;;;;;;8.60;5.30;;;;;;;-147.86;100.00;48361.55;105929;1254;65499;-41
2023/11/30 02:30:14;;;;;;;11.70;5.40;;;;;;;-147.86;100.00;48350.96;106001;1254;71451;-41
2023/11/30 02:32:42;;;;;;;11.20;6.10;;;;;;;-147.86;100.00;48359.20;105941;1253;60329;-41
2023/11/30 02:35:09;;;;;;;7.50;5.20;;;;;;;-147.86;100.00;48367.43;106007;1250;60396;-41
2023/11/30 02:37:36;;;;;;;9.70;5.10;;;;;;;-147.86;100.00;48352.93;105958;1251;73903;-41
2023/11/30 02:40:03;;;;;;;9.50;6.10;;;;;;;-147.86;100.00;48360.77;105988;1254;64510;-42
2023/11/30 02:42:30;;;;;;;9.10;5.20;;;;;;;-147.86;100.00;48372.13;105980;1254;72430;-41
2023/11/30 02:44:57;;;;;;;7.60;5.20;;;;;;;-147.86;100.00;48366.25;105999;1254;60416;-41
2023/11/30 02:47:24;;;;;;;9.60;5.80;;;;;;;-147.86;100.00;48373.31;105983;1254;60444;-42
2023/11/30 02:49:51;;;;;;;9.30;5.20;;;;;;;-147.86;100.00;48354.10;105979;1250;73844;-42
2023/11/30 02:52:18;;;;;;;7.90;5.40;;;;;;;-147.86;100.00;48369.39;105970;1257;65891;-42
2023/11/30 02:54:46;;;;;;;11.70;4.90;;;;;;;-147.86;100.00;48367.43;105985;1254;72887;-41
2023/11/30 02:57:14;;;;;;;11.40;6.30;;;;;;;-147.86;100.00;48366.26;106062;1254;60418;-42
2023/11/30 02:59:40;;;;;;;10.30;5.50;;;;;;;-147.86;100.00;48367.43;105961;1251;60527;-41
2023/11/30 03:02:07;;;;;;;9.10;5.00;;;;;;;-147.86;100.00;48378.41;105979;1254;72806;-42
2023/11/30 03:04:35;;;;;;;11.80;6.20;;;;;;;-147.86;100.00;48390.96;105927;1256;65982;-42
2023/11/30 03:07:03;;;;;;;12.50;6.00;;;;;;;-147.86;100.00;48364.30;105963;1251;72654;-42
2023/11/30 03:09:30;;;;;;;13.70;6.40;;;;;;;-147.86;100.00;48373.31;106014;1257;60424;-42
2023/11/30 03:11:57;;;;;;;15.60;6.60;;;;;;;-147.86;100.00;48356.84;105967;1256;60612;-42
2023/11/30 03:14:24;;;;;;;11.00;5.70;;;;;;;-147.86;100.00;48387.04;106039;1254;72776;-42
2023/11/30 03:16:51;;;;;;;11.70;6.10;;;;;;;-147.86;100.00;48377.24;105928;1255;65509;-42
2023/11/30 03:19:18;;;;;;;11.50;5.90;;;;;;;-147.86;100.00;48376.05;105975;1254;72679;-41
2023/11/30 03:21:45;;;;;;;13.30;6.30;;;;;;;-147.86;100.00;48368.22;105934;1254;60358;-41
2023/11/30 03:24:12;;;;;;;10.90;6.20;;;;;;;-147.86;100.00;48378.80;105978;1251;60531;-42
2023/11/30 03:26:39;;;;;;;8.50;6.00;;;;;;;-147.86;100.00;48390.96;105978;1254;73764;-42
2023/11/30 03:29:06;;;;;;;10.90;6.50;;;;;;;-147.86;100.00;48373.31;105884;1256;65271;-42
2023/11/30 03:31:33;;;;;;;13.10;6.80;;;;;;;-147.86;100.00;48383.90;105902;1250;72675;-41
2023/11/30 03:34:03;;;;;;;9.30;6.00;;;;;;;-147.86;100.00;48391.35;105942;1254;60505;-42
2023/11/30 03:36:30;;;;;;;12.70;6.60;;;;;;;-147.86;100.00;48393.30;106006;1251;60492;-42
2023/11/30 03:38:58;;;;;;;14.30;6.30;;;;;;;-147.86;100.00;48388.21;106016;1253;73875;-41
2023/11/30 03:41:25;;;;;;;13.30;7.00;;;;;;;-147.86;100.00;48405.46;105958;1253;65430;-42
2023/11/30 03:43:51;;;;;;;12.30;6.70;;;;;;;-147.86;100.00;48399.20;105985;1250;72586;-41
2023/11/30 03:46:21;;;;;;;12.50;6.20;;;;;;;-147.86;100.00;48399.20;105932;1254;61184;-42
2023/11/30 03:48:48;;;;;;;12.20;7.00;;;;;;;-147.86;100.00;48409.77;105983;1254;60519;-41
2023/11/30 03:51:15;;;;;;;11.50;6.70;;;;;;;-147.86;100.00;48392.92;105983;1256;73847;-41
2023/11/30 03:53:42;;;;;;;12.30;6.60;;;;;;;-147.86;100.00;48417.62;105991;1254;65996;-41
2023/11/30 03:56:09;;;;;;;13.20;6.80;;;;;;;-147.86;100.00;48423.11;106002;1251;72654;-41
2023/11/30 03:58:36;;;;;;;19.90;7.60;;;;;;;-147.86;100.00;48424.68;105984;1253;61181;-41
2023/11/30 04:01:05;;;;;;;13.50;7.00;;;;;;;-147.86;100.00;48433.30;105978;1250;60441;-40
2023/11/30 04:03:33;;;;;;;13.50;6.70;;;;;;;-147.86;100.00;48427.81;106108;1250;72424;-42
2023/11/30 04:06:00;;;;;;;17.30;7.70;;;;;;;-147.86;100.00;48450.16;105978;1254;65526;-41
2023/11/30 04:08:27;;;;;;;12.30;6.70;;;;;;;-147.86;100.00;48437.61;105974;1250;71571;-41
2023/11/30 04:10:54;;;;;;;11.40;6.70;;;;;;;-147.86;100.00;48468.59;105960;1254;60659;-40
2023/11/30 04:13:20;;;;;;;14.30;7.30;;;;;;;-147.86;100.00;48458.79;105961;1250;60530;-41
2023/11/30 04:15:47;;;;;;;12.30;7.50;;;;;;;-147.86;100.00;48453.70;105995;1254;73848;-41
2023/11/30 04:18:14;;;;;;;14.50;7.30;;;;;;;-147.86;100.00;48465.45;105993;1256;65257;-42
2023/11/30 04:20:41;;;;;;;12.30;7.70;;;;;;;-147.86;100.00;48463.50;106009;1254;72712;-41
2023/11/30 04:23:08;;;;;;;17.50;7.70;;;;;;;-147.86;100.00;48451.73;105991;1253;60358;-40
2023/11/30 04:25:35;;;;;;;12.80;7.30;;;;;;;-147.86;100.00;48540.74;105994;1250;60524;-41
2023/11/30 04:28:02;;;;;;;15.10;7.50;;;;;;;-147.86;100.00;48602.30;105967;1254;73803;-41
2023/11/30 04:30:29;;;;;;;16.60;7.30;;;;;;;-147.86;100.00;48601.51;105965;1250;65524;-42
2023/11/30 04:32:56;;;;;;;16.30;7.80;;;;;;;-147.86;100.00;48608.57;106018;1251;72638;-44
2023/11/30 04:35:24;;;;;;;15.40;7.90;;;;;;;-147.86;100.00;48617.59;106014;1251;61475;-43
2023/11/30 04:37:51;;;;;;;16.70;7.30;;;;;;;-147.86;100.00;48617.98;105960;1251;60473;-43
2023/11/30 04:40:19;;;;;;;18.00;8.10;;;;;;;-147.86;100.00;48639.55;106014;1254;73848;-42
2023/11/30 04:42:46;;;;;;;12.60;7.00;;;;;;;-147.86;100.00;48628.57;106045;1251;65503;-42
2023/11/30 04:45:13;;;;;;;11.20;6.60;;;;;;;-147.86;100.00;48643.08;105975;1251;71514;-42
2023/11/30 04:47:40;;;;;;;16.60;7.70;;;;;;;-147.86;100.00;48631.71;105988;1254;60911;-41
2023/11/30 04:50:08;;;;;;;14.40;7.00;;;;;;;-147.86;100.00;48650.53;105993;1250;60466;-41
2023/11/30 04:52:35;;;;;;;15.70;7.50;;;;;;;-147.86;100.00;48644.26;106065;1250;72802;-41
2023/11/30 04:55:02;;;;;;;14.10;7.30;;;;;;;-147.86;100.00;48640.73;105959;1254;65433;-42
2023/11/30 04:57:29;;;;;;;13.20;7.40;;;;;;;-147.86;100.00;48643.47;105949;1252;71333;-41
2023/11/30 04:59:56;;;;;;;13.80;7.20;;;;;;;-147.86;100.00;48640.33;105935;1256;61210;-42
2023/11/30 05:02:23;;;;;;;13.20;7.20;;;;;;;-147.86;100.00;48654.84;105988;1250;60908;-41
2023/11/30 05:04:50;;;;;;;12.60;7.30;;;;;;;-147.86;100.00;48658.76;105943;1254;73837;-41
2023/11/30 05:07:17;;;;;;;14.30;7.20;;;;;;;-147.86;100.00;48648.18;105959;1254;64348;-41
2023/11/30 05:09:44;;;;;;;17.60;7.60;;;;;;;-147.86;100.00;48663.86;105938;1251;72603;-41
2023/11/30 05:12:11;;;;;;;15.50;7.30;;;;;;;-147.86;100.00;48654.45;105966;1251;61237;-42
2023/11/30 05:14:38;;;;;;;16.20;7.50;;;;;;;-147.86;100.00;48674.45;105949;1250;60505;-41
2023/11/30 05:17:05;;;;;;;16.20;7.50;;;;;;;-147.86;100.00;48676.80;105983;1251;73624;-41
2023/11/30 05:19:32;;;;;;;17.80;7.50;;;;;;;-147.86;100.00;48679.15;105969;1254;65293;-41
2023/11/30 05:21:59;;;;;;;12.60;7.70;;;;;;;-147.86;100.00;48669.74;106023;1254;72538;-41
2023/11/30 05:24:25;;;;;;;18.00;7.90;;;;;;;-147.86;100.00;48690.92;105959;1250;62416;-41
2023/11/30 05:26:53;;;;;;;15.70;7.80;;;;;;;-147.86;100.00;48684.64;106003;1250;60454;-41
2023/11/30 05:29:20;;;;;;;13.80;7.40;;;;;;;-147.86;100.00;48691.31;105951;1251;73823;-41
2023/11/30 05:31:47;;;;;;;14.00;7.20;;;;;;;-147.86;100.00;48699.94;106041;1254;65507;-41
2023/11/30 05:34:14;;;;;;;14.00;8.00;;;;;;;-147.86;100.00;48688.56;105962;1251;71539;-41
2023/11/30 05:36:41;;;;;;;13.80;7.50;;;;;;;-147.86;100.00;48712.48;105952;1250;62097;-41
2023/11/30 05:39:09;;;;;;;16.70;7.50;;;;;;;-147.86;100.00;48733.66;105963;1250;60444;-41
2023/11/30 05:41:36;;;;;;;18.90;8.50;;;;;;;-147.86;100.00;48724.25;105981;1250;73786;-41
2023/11/30 05:44:03;;;;;;;18.00;8.70;;;;;;;-147.86;100.00;48734.45;105948;1254;65459;-41
2023/11/30 05:46:31;;;;;;;19.30;8.40;;;;;;;-147.86;100.00;48752.87;106007;1250;72607;-41
2023/11/30 05:48:58;;;;;;;14.80;8.30;;;;;;;-147.86;100.00;48754.05;105949;1254;60431;-41
2023/11/30 05:51:26;;;;;;;17.50;7.60;;;;;;;-147.86;100.00;48755.23;106014;1250;60392;-41
2023/11/30 05:53:54;;;;;;;15.50;8.20;;;;;;;-147.86;100.00;48744.24;105927;1254;73636;-41
2023/11/30 05:56:21;;;;;;;16.60;8.60;;;;;;;-147.86;100.00;48771.30;105977;1253;65436;-41
2023/11/30 05:58:48;;;;;;;17.60;8.30;;;;;;;-147.86;100.00;48769.73;105985;1250;72485;-41
2023/11/30 06:01:16;;;;;;;14.70;7.80;;;;;;;-147.86;100.00;48757.19;105961;1251;61208;-42
2023/11/30 06:03:43;;;;;;;16.80;8.20;;;;;;;-147.86;100.00;48774.83;105958;1250;60499;-41
2023/11/30 06:06:10;;;;;;;18.50;9.00;;;;;;;-147.86;100.00;48753.66;105988;1250;73861;-42
2023/11/30 06:08:37;;;;;;;14.70;8.60;;;;;;;-147.86;100.00;48759.15;105996;1253;65457;-41
2023/11/30 06:11:05;;;;;;;17.40;8.20;;;;;;;-147.86;100.00;48776.40;106014;1250;72650;-41
2023/11/30 06:13:31;;;;;;;18.00;9.30;;;;;;;-147.86;100.00;48754.05;105990;1250;60900;-40
2023/11/30 06:15:58;;;;;;;16.50;8.10;;;;;;;-147.86;100.00;48745.03;106016;1250;60460;-41
2023/11/30 06:18:25;;;;;;;20.20;8.60;;;;;;;-147.86;100.00;48737.97;105962;1254;73904;-41
2023/11/30 06:20:53;;;;;;;16.50;7.90;;;;;;;-147.86;100.00;48741.89;105993;1257;65474;-40
2023/11/30 06:23:19;;;;;;;19.10;7.60;;;;;;;-147.86;100.00;48761.50;105996;1250;72267;-41
2023/11/30 06:25:47;;;;;;;14.90;8.00;;;;;;;-147.86;100.00;48759.54;105973;1254;60418;-41
2023/11/30 06:28:16;;;;;;;19.40;9.30;;;;;;;-147.86;100.00;48745.82;106026;1250;60527;-41
2023/11/30 06:30:44;;;;;;;17.30;8.10;;;;;;;-147.86;100.00;48740.32;105981;1254;73576;-41
2023/11/30 06:33:11;;;;;;;19.60;8.80;;;;;;;-147.86;100.00;48739.15;105988;1254;65543;-43
2023/11/30 06:35:38;;;;;;;14.20;8.20;;;;;;;-147.86;100.00;48712.88;105794;1251;72470;-44
2023/11/30 06:38:05;;;;;;;19.20;8.40;;;;;;;-147.86;100.00;48715.23;105658;1254;60314;-41
2023/11/30 06:40:32;;;;;;;15.50;8.40;;;;;;;-147.86;100.00;48684.64;105868;1250;60534;-43
2023/11/30 06:42:59;;;;;;;18.30;9.50;;;;;;;-147.86;100.00;48683.07;105989;1250;73810;-42
2023/11/30 06:45:26;;;;;;;20.90;10.20;;;;;;;-147.86;100.00;48677.20;106115;1253;65448;-41
2023/11/30 06:47:53;;;;;;;17.20;8.10;;;;;;;-147.86;100.00;48693.66;105993;1250;72504;-44
2023/11/30 06:50:20;;;;;;;16.20;8.90;;;;;;;-147.86;100.00;48678.76;105940;1254;60425;-44
2023/11/30 06:52:47;;;;;;;21.20;9.60;;;;;;;-147.86;100.00;48691.30;106024;1250;60530;-42
2023/11/30 06:55:13;;;;;;;19.70;8.70;;;;;;;-147.86;100.00;48663.08;105989;1251;73555;-41
2023/11/30 06:57:40;;;;;;;17.30;8.80;;;;;;;-147.86;100.00;48670.13;106035;1253;65373;-42
2023/11/30 07:00:12;;;;;;;19.90;8.20;;;;;;;-147.86;100.00;48662.68;106034;1251;72449;-42
2023/11/30 07:02:39;;;;;;;17.60;8.80;;;;;;;-147.86;100.00;48659.55;105981;1254;60431;-42
2023/11/30 07:05:07;;;;;;;21.20;10.20;;;;;;;-147.86;100.00;48666.61;106026;1251;61386;-42
2023/11/30 07:07:34;;;;;;;17.50;8.80;;;;;;;-147.86;100.00;48658.37;105958;1250;73888;-42
2023/11/30 07:10:02;;;;;;;15.90;9.20;;;;;;;-147.86;100.00;48639.95;105978;1250;65515;-43
2023/11/30 07:12:29;;;;;;;20.90;9.50;;;;;;;-147.86;100.00;48627.00;105959;1253;72612;-42
2023/11/30 07:14:56;;;;;;;17.20;8.30;;;;;;;-147.86;100.00;48628.57;105963;1254;60532;-42
2023/11/30 07:17:23;;;;;;;15.60;8.60;;;;;;;-147.86;100.00;48612.10;105966;1250;60435;-42
2023/11/30 07:19:51;;;;;;;17.90;9.10;;;;;;;-147.86;100.00;48594.06;105999;1254;73809;-41
2023/11/30 07:22:18;;;;;;;18.00;9.30;;;;;;;-147.86;100.00;48569.36;105966;1251;65370;-42
2023/11/30 07:24:46;;;;;;;16.10;8.60;;;;;;;-147.86;100.00;48558.38;105964;1250;72732;-42
2023/11/30 07:27:19;;;;;;;31.00;9.50;;;;;;;-147.86;100.00;48549.75;105967;1251;60418;-42
2023/11/30 07:29:46;;;;;;;18.30;9.90;;;;;;;-147.86;100.00;48532.11;106022;1250;60392;-42
2023/11/30 07:32:17;;;;;;;24.60;9.70;;;;;;;-147.86;100.00;48543.09;106002;1254;74645;-42
2023/11/30 07:34:44;;;;;;;21.20;9.80;;;;;;;-147.86;100.00;48536.82;105995;1254;65451;-42
2023/11/30 07:37:15;;;;;;;18.70;9.30;;;;;;;-147.86;100.00;48525.84;105968;1250;71420;-42
2023/11/30 07:39:42;;;;;;;26.60;9.40;;;;;;;-147.86;100.00;48503.09;105931;1254;61464;-42
2023/11/30 07:42:09;;;;;;;20.70;9.30;;;;;;;-147.86;100.00;48494.47;105981;1250;60534;-41
2023/11/30 07:44:36;;;;;;;16.80;9.30;;;;;;;-147.86;100.00;48477.21;105989;1254;73806;-42
2023/11/30 07:47:03;;;;;;;22.00;9.40;;;;;;;-147.86;100.00;48483.10;105999;1254;65441;-42
2023/11/30 07:49:30;;;;;;;17.50;9.30;;;;;;;-147.86;100.00;48455.26;105988;1250;72765;-42
2023/11/30 07:51:57;;;;;;;19.50;9.80;;;;;;;-147.86;100.00;48433.69;105983;1254;61669;-41
2023/11/30 07:54:24;;;;;;;23.40;9.20;;;;;;;-147.86;100.00;48440.75;106016;1250;60476;-42
2023/11/30 07:56:51;;;;;;;18.70;8.80;;;;;;;-147.86;100.00;48427.81;106004;1254;73493;-43
2023/11/30 07:59:18;;;;;;;22.50;10.40;;;;;;;-147.86;100.00;48422.72;105987;1254;65497;-43
2023/11/30 08:01:46;;;;;;;19.40;9.40;;;;;;;-147.86;100.00;48438.79;106015;1254;72590;-42
2023/11/30 08:04:13;;;;;;;20.10;10.10;;;;;;;-147.86;100.00;48423.89;106007;1254;60441;-42
2023/11/30 08:06:42;;;;;;;36.20;11.10;;;;;;;-147.86;100.00;48421.93;105961;1250;60441;-43
2023/11/30 08:09:09;;;;;;;26.80;8.80;;;;;;;-147.86;100.00;48389.39;105993;1250;73809;-42
2023/11/30 08:11:38;;;;;;;30.50;10.60;;;;;;;-147.86;100.00;48397.23;105923;1254;66393;-43
2023/11/30 08:14:05;;;;;;;31.30;9.00;;;;;;;-147.86;100.00;48396.45;106048;1254;72416;-43
2023/11/30 08:16:33;;;;;;;24.80;9.80;;;;;;;-147.86;100.00;48402.72;105948;1254;60428;-42
2023/11/30 08:19:00;;;;;;;16.10;8.90;;;;;;;-147.86;100.00;48366.64;105792;1250;377659;-43
2023/11/30 08:21:27;;;;;;;18.70;9.30;;;;;;;-147.86;100.00;48374.10;105938;1254;73790;-42
2023/11/30 08:25:16;;;;;;;;;;;;;;;-147.86;100.00;48362.34;102552;1293;603566;-41
2023/11/30 08:27:43;;;;;;;23.90;8.80;;;;;;;-147.86;100.00;48357.63;105210;1269;59362;-41
2023/11/30 08:30:16;;;;;;;28.00;10.00;;;;;;;-147.86;100.00;48370.96;105200;1264;59241;-41
2023/11/30 08:32:43;;;;;;;19.10;10.30;;;;;;;-147.86;100.00;48370.96;104994;1269;72266;-41
2023/11/30 08:35:10;;;;;;;21.10;9.20;;;;;;;-147.86;100.00;48347.82;104830;1271;65559;-42
2023/11/30 08:37:37;;;;;;;16.50;9.10;;;;;;;-147.86;100.00;48364.29;104774;1266;230376;-41
2023/11/30 08:40:07;;;;;;;17.70;9.40;;;;;;;-147.86;100.00;48320.38;105175;1269;59523;-41
2023/11/30 08:42:35;;;;;;;16.90;9.10;;;;;;;-147.86;100.00;48333.32;105180;1269;59327;-42
2023/11/30 08:45:03;;;;;;;28.80;9.50;;;;;;;-147.86;100.00;48354.49;105252;1264;72172;-41
2023/11/30 08:47:31;;;;;;;18.00;8.90;;;;;;;-147.86;100.00;48343.13;105271;1262;64675;-42
2023/11/30 08:49:58;;;;;;;17.10;8.80;;;;;;;-147.86;100.00;48349.79;105227;1265;72645;-42
2023/11/30 08:52:24;;;;;;;15.00;8.90;;;;;;;-147.86;100.00;48341.16;105240;1266;59628;-42
2023/11/30 08:54:51;;;;;;;15.80;9.10;;;;;;;-147.86;100.00;48342.73;105276;1263;60255;-41
2023/11/30 08:57:19;;;;;;;17.10;8.60;;;;;;;-147.86;100.00;48328.23;105273;1260;73016;-42
2023/11/30 08:59:46;;;;;;;25.40;10.20;;;;;;;-147.86;100.00;48346.26;105237;1266;65365;-42
2023/11/30 09:02:14;;;;;;;15.10;8.60;;;;;;;-147.86;100.00;48339.98;105241;1263;72645;-42
2023/11/30 09:04:42;;;;;;;45.70;9.20;;;;;;;-147.86;100.00;48334.89;105281;1263;59663;-41
2023/11/30 09:07:09;;;;;;;26.10;10.30;;;;;;;-147.86;100.00;48315.28;105208;1263;59737;-42
2023/11/30 09:09:36;;;;;;;14.50;8.80;;;;;;;-147.86;100.00;48341.95;105205;1263;73002;-42
2023/11/30 09:12:04;;;;;;;20.80;9.30;;;;;;;-147.86;100.00;48334.88;105236;1266;65626;-43
2023/11/30 09:14:31;;;;;;;19.70;9.20;;;;;;;-147.86;100.00;48332.14;105243;1263;72497;-42
2023/11/30 09:16:59;;;;;;;22.90;9.70;;;;;;;-147.86;100.00;48310.18;105284;1266;59627;-41
2023/11/30 09:19:26;;;;;;;23.10;9.60;;;;;;;-147.86;100.00;48325.48;105262;1262;60226;-42
2023/11/30 09:21:53;;;;;;;16.30;8.30;;;;;;;-147.86;100.00;48332.54;105217;1262;72989;-42
2023/11/30 09:24:21;;;;;;;14.50;8.50;;;;;;;-147.86;100.00;48346.65;105248;1265;64416;-42
2023/11/30 09:26:53;;;;;;;13.70;8.20;;;;;;;-147.86;100.00;48341.95;105261;1263;73029;-42
2023/11/30 09:29:20;;;;;;;17.40;7.80;;;;;;;-147.86;100.00;48328.61;105228;1265;61332;-42
2023/11/30 09:31:47;;;;;;;18.10;8.40;;;;;;;-147.86;100.00;48331.75;105242;1266;59976;-42
2023/11/30 09:34:14;;;;;;;16.10;8.50;;;;;;;-147.86;100.00;48332.93;105194;1264;72577;-42
2023/11/30 09:36:41;;;;;;;16.70;8.40;;;;;;;-147.86;100.00;48344.69;105236;1266;65326;-41
2023/11/30 09:39:08;;;;;;;17.10;8.90;;;;;;;-147.86;100.00;48333.32;105242;1263;73061;-42
2023/11/30 09:41:38;;;;;;;16.90;8.50;;;;;;;-147.86;100.00;48331.36;105239;1266;60241;-42
2023/11/30 09:44:06;;;;;;;21.90;8.90;;;;;;;-147.86;100.00;48336.46;105233;1263;60197;-42
2023/11/30 09:46:33;;;;;;;13.60;7.80;;;;;;;-147.86;100.00;48327.44;105243;1264;72959;-42
2023/11/30 09:49:01;;;;;;;18.00;9.00;;;;;;;-147.86;100.00;48334.49;105329;1266;66528;-42
2023/11/30 09:51:31;;;;;;;16.00;8.40;;;;;;;-147.86;100.00;48326.26;105243;1263;73099;-42
2023/11/30 09:53:59;;;;;;;17.10;9.00;;;;;;;-147.86;100.00;48344.69;105234;1266;59948;-42
2023/11/30 09:56:26;;;;;;;18.50;7.70;;;;;;;-147.86;100.00;48322.73;105623;1257;59765;-42
2023/11/30 09:58:54;;;;;;;15.90;7.90;;;;;;;-147.86;100.00;48338.42;105623;1258;72982;-43
2023/11/30 10:01:22;;;;;;;14.20;8.00;;;;;;;-147.86;100.00;48327.83;105667;1262;65752;-42
2023/11/30 10:03:49;;;;;;;16.30;8.20;;;;;;;-147.86;100.00;48322.34;105635;1257;71233;-42
2023/11/30 10:06:17;;;;;;;15.70;9.10;;;;;;;-147.86;100.00;48325.09;105622;1263;59630;-41
2023/11/30 10:08:44;;;;;;;15.80;8.40;;;;;;;-147.86;100.00;48338.42;105606;1257;59700;-41
2023/11/30 10:11:12;;;;;;;16.50;8.40;;;;;;;-147.86;100.00;48323.91;105632;1257;73012;-42
2023/11/30 10:13:39;;;;;;;17.20;8.70;;;;;;;-147.86;100.00;48326.26;105622;1261;65644;-41
2023/11/30 10:16:06;;;;;;;17.50;9.50;;;;;;;-147.86;100.00;48334.50;105630;1257;72588;-42
2023/11/30 10:18:36;;;;;;;15.70;8.70;;;;;;;-147.86;100.00;48313.32;105582;1262;60556;-42
2023/11/30 10:21:03;;;;;;;15.90;8.50;;;;;;;-147.86;100.00;48333.32;105605;1257;61062;-42
2023/11/30 10:23:30;;;;;;;15.00;8.30;;;;;;;-147.86;100.00;48336.85;105621;1263;72979;-42
2023/11/30 10:25:57;;;;;;;18.20;8.80;;;;;;;-147.86;100.00;48322.73;105580;1263;65490;-42
2023/11/30 10:28:24;;;;;;;17.40;9.50;;;;;;;-147.86;100.00;48328.23;105579;1262;72622;-42
2023/11/30 10:30:55;;;;;;;17.60;9.80;;;;;;;-147.86;100.00;48331.75;105634;1263;60231;-42
2023/11/30 10:33:26;;;;;;;17.40;9.90;;;;;;;-147.86;100.00;48317.24;105583;1257;61303;-41
2023/11/30 10:36:01;;;;;;;17.60;9.60;;;;;;;-147.86;100.00;48308.62;105350;1257;72565;-41
2023/11/30 10:38:31;;;;;;;18.80;9.60;;;;;;;-147.86;100.00;48313.32;105625;1260;64460;-41
2023/11/30 10:41:09;;;;;;;17.10;9.40;;;;;;;-147.86;100.00;48331.75;105636;1262;72684;-40
2023/11/30 10:43:40;;;;;;;18.70;8.80;;;;;;;-147.86;100.00;48332.53;105609;1263;59641;-40
2023/11/30 10:46:07;;;;;;;20.80;9.90;;;;;;;-147.86;100.00;48321.16;105655;1257;61445;-40
2023/11/30 10:48:44;;;;;;;17.80;9.60;;;;;;;-147.86;100.00;48331.36;105620;1257;73506;-40
2023/11/30 10:51:11;;;;;;;17.10;9.70;;;;;;;-147.86;100.00;48331.75;105615;1262;65620;-41
2023/11/30 10:53:44;;;;;;;16.30;9.40;;;;;;;-147.86;100.00;48335.68;105584;1257;72505;-41
2023/11/30 10:56:14;;;;;;;17.70;9.30;;;;;;;-147.86;100.00;48322.34;105628;1260;59894;-41
2023/11/30 10:58:45;;;;;;;17.90;10.00;;;;;;;-147.86;100.00;48341.16;105707;1257;60353;-41
2023/11/30 11:01:13;;;;;;;19.60;9.90;;;;;;;-147.86;100.00;48329.00;105630;1257;72794;-41